sensor_id;sensor_type;location;lat;lon;timestamp;P1;durP1;ratioP1;P2;durP2;ratioP2
8333;SDS011;4204;43.004;23.052;2023-03-13T00:01:22;7.67;;;5.00;;
8333;SDS011;4204;43.004;23.052;2023-03-13T00:03:52;8.97;;;5.83;;
8333;SDS011;4204;43.004;23.052;2023-03-13T00:06:20;8.80;;;6.40;;
8333;SDS011;4204;43.004;23.052;2023-03-13T00:08:49;9.57;;;6.87;;
8333;SDS011;4204;43.004;23.052;2023-03-13T00:11:17;8.70;;;5.83;;
8333;SDS011;4204;43.004;23.052;2023-03-13T00:13:45;6.57;;;4.83;;
8333;SDS011;4204;43.004;23.052;2023-03-13T00:16:13;7.63;;;5.37;;
8333;SDS011;4204;43.004;23.052;2023-03-13T00:18:46;6.30;;;4.37;;
8333;SDS011;4204;43.004;23.052;2023-03-13T00:21:16;8.13;;;5.13;;
8333;SDS011;4204;43.004;23.052;2023-03-13T00:23:45;6.90;;;5.17;;
8333;SDS011;4204;43.004;23.052;2023-03-13T00:26:13;6.97;;;5.00;;
8333;SDS011;4204;43.004;23.052;2023-03-13T00:28:42;6.80;;;5.33;;
8333;SDS011;4204;43.004;23.052;2023-03-13T00:31:11;6.53;;;4.77;;
8333;SDS011;4204;43.004;23.052;2023-03-13T00:33:40;7.50;;;5.07;;
8333;SDS011;4204;43.004;23.052;2023-03-13T00:36:11;7.13;;;4.70;;
8333;SDS011;4204;43.004;23.052;2023-03-13T00:38:40;7.50;;;4.77;;
8333;SDS011;4204;43.004;23.052;2023-03-13T00:41:09;7.87;;;4.63;;
8333;SDS011;4204;43.004;23.052;2023-03-13T00:43:38;6.53;;;4.63;;
8333;SDS011;4204;43.004;23.052;2023-03-13T00:46:07;5.37;;;4.13;;
8333;SDS011;4204;43.004;23.052;2023-03-13T00:48:35;5.10;;;4.13;;
8333;SDS011;4204;43.004;23.052;2023-03-13T00:51:04;7.23;;;4.90;;
8333;SDS011;4204;43.004;23.052;2023-03-13T00:53:33;7.40;;;4.90;;
8333;SDS011;4204;43.004;23.052;2023-03-13T00:56:02;7.40;;;4.63;;
8333;SDS011;4204;43.004;23.052;2023-03-13T00:58:32;6.17;;;4.23;;
8333;SDS011;4204;43.004;23.052;2023-03-13T01:01:08;7.20;;;5.13;;
8333;SDS011;4204;43.004;23.052;2023-03-13T01:03:38;6.07;;;4.43;;
8333;SDS011;4204;43.004;23.052;2023-03-13T01:06:07;8.53;;;4.90;;
8333;SDS011;4204;43.004;23.052;2023-03-13T01:08:38;6.60;;;4.37;;
8333;SDS011;4204;43.004;23.052;2023-03-13T01:11:07;7.80;;;4.57;;
8333;SDS011;4204;43.004;23.052;2023-03-13T01:13:36;6.57;;;5.27;;
8333;SDS011;4204;43.004;23.052;2023-03-13T01:16:05;6.10;;;4.43;;
8333;SDS011;4204;43.004;23.052;2023-03-13T01:18:35;9.93;;;4.60;;
8333;SDS011;4204;43.004;23.052;2023-03-13T01:21:04;7.33;;;5.03;;
8333;SDS011;4204;43.004;23.052;2023-03-13T01:23:32;5.17;;;4.03;;
8333;SDS011;4204;43.004;23.052;2023-03-13T01:26:02;5.80;;;4.33;;
8333;SDS011;4204;43.004;23.052;2023-03-13T01:28:33;5.57;;;4.30;;
8333;SDS011;4204;43.004;23.052;2023-03-13T01:31:09;5.33;;;4.37;;
8333;SDS011;4204;43.004;23.052;2023-03-13T01:33:38;6.60;;;4.47;;
8333;SDS011;4204;43.004;23.052;2023-03-13T01:36:06;5.50;;;4.30;;
8333;SDS011;4204;43.004;23.052;2023-03-13T01:38:35;5.50;;;4.00;;
8333;SDS011;4204;43.004;23.052;2023-03-13T01:41:06;7.10;;;4.27;;
8333;SDS011;4204;43.004;23.052;2023-03-13T01:43:35;5.87;;;4.13;;
8333;SDS011;4204;43.004;23.052;2023-03-13T01:46:09;7.37;;;4.43;;
8333;SDS011;4204;43.004;23.052;2023-03-13T01:48:59;6.20;;;4.53;;
8333;SDS011;4204;43.004;23.052;2023-03-13T01:51:33;7.00;;;4.23;;
8333;SDS011;4204;43.004;23.052;2023-03-13T01:54:05;5.67;;;4.40;;
8333;SDS011;4204;43.004;23.052;2023-03-13T01:56:38;7.67;;;5.20;;
8333;SDS011;4204;43.004;23.052;2023-03-13T01:59:10;9.23;;;4.80;;
8333;SDS011;4204;43.004;23.052;2023-03-13T02:01:40;6.17;;;4.33;;
8333;SDS011;4204;43.004;23.052;2023-03-13T02:04:10;7.03;;;4.60;;
8333;SDS011;4204;43.004;23.052;2023-03-13T02:06:40;5.43;;;4.43;;
8333;SDS011;4204;43.004;23.052;2023-03-13T02:09:13;5.53;;;4.50;;
8333;SDS011;4204;43.004;23.052;2023-03-13T02:11:48;6.30;;;4.60;;
8333;SDS011;4204;43.004;23.052;2023-03-13T02:14:22;7.63;;;5.13;;
8333;SDS011;4204;43.004;23.052;2023-03-13T02:16:54;11.30;;;5.67;;
8333;SDS011;4204;43.004;23.052;2023-03-13T02:19:24;7.00;;;5.13;;
8333;SDS011;4204;43.004;23.052;2023-03-13T02:21:58;8.83;;;5.20;;
8333;SDS011;4204;43.004;23.052;2023-03-13T02:24:36;6.27;;;4.67;;
8333;SDS011;4204;43.004;23.052;2023-03-13T02:27:15;7.43;;;4.90;;
8333;SDS011;4204;43.004;23.052;2023-03-13T02:29:43;6.80;;;4.80;;
8333;SDS011;4204;43.004;23.052;2023-03-13T02:32:12;6.90;;;5.23;;
8333;SDS011;4204;43.004;23.052;2023-03-13T02:34:40;11.07;;;5.50;;
8333;SDS011;4204;43.004;23.052;2023-03-13T02:37:10;7.83;;;5.00;;
8333;SDS011;4204;43.004;23.052;2023-03-13T02:39:40;8.13;;;5.20;;
8333;SDS011;4204;43.004;23.052;2023-03-13T02:42:12;9.00;;;6.00;;
8333;SDS011;4204;43.004;23.052;2023-03-13T02:44:44;8.37;;;5.77;;
8333;SDS011;4204;43.004;23.052;2023-03-13T02:47:16;7.03;;;4.97;;
8333;SDS011;4204;43.004;23.052;2023-03-13T02:49:44;8.67;;;5.93;;
8333;SDS011;4204;43.004;23.052;2023-03-13T02:52:13;9.40;;;6.00;;
8333;SDS011;4204;43.004;23.052;2023-03-13T02:54:45;9.50;;;6.27;;
8333;SDS011;4204;43.004;23.052;2023-03-13T02:57:17;14.00;;;7.77;;
8333;SDS011;4204;43.004;23.052;2023-03-13T02:59:45;15.83;;;7.70;;
8333;SDS011;4204;43.004;23.052;2023-03-13T03:02:12;14.00;;;7.73;;
8333;SDS011;4204;43.004;23.052;2023-03-13T03:04:40;8.40;;;4.87;;
8333;SDS011;4204;43.004;23.052;2023-03-13T03:07:10;9.13;;;5.47;;
8333;SDS011;4204;43.004;23.052;2023-03-13T03:09:38;6.50;;;5.17;;
8333;SDS011;4204;43.004;23.052;2023-03-13T03:12:10;6.47;;;4.40;;
8333;SDS011;4204;43.004;23.052;2023-03-13T03:14:39;6.87;;;5.37;;
8333;SDS011;4204;43.004;23.052;2023-03-13T03:17:07;7.80;;;5.50;;
8333;SDS011;4204;43.004;23.052;2023-03-13T03:19:35;9.70;;;6.03;;
8333;SDS011;4204;43.004;23.052;2023-03-13T03:22:03;10.00;;;5.40;;
8333;SDS011;4204;43.004;23.052;2023-03-13T03:24:32;10.00;;;5.13;;
8333;SDS011;4204;43.004;23.052;2023-03-13T03:27:00;6.10;;;4.47;;
8333;SDS011;4204;43.004;23.052;2023-03-13T03:29:34;10.10;;;6.20;;
8333;SDS011;4204;43.004;23.052;2023-03-13T03:32:04;10.33;;;7.20;;
8333;SDS011;4204;43.004;23.052;2023-03-13T03:34:32;11.73;;;6.10;;
8333;SDS011;4204;43.004;23.052;2023-03-13T03:37:00;8.63;;;6.33;;
8333;SDS011;4204;43.004;23.052;2023-03-13T03:39:28;9.77;;;6.60;;
8333;SDS011;4204;43.004;23.052;2023-03-13T03:41:56;9.17;;;6.70;;
8333;SDS011;4204;43.004;23.052;2023-03-13T03:44:25;7.97;;;5.47;;
8333;SDS011;4204;43.004;23.052;2023-03-13T03:46:55;10.77;;;5.63;;
8333;SDS011;4204;43.004;23.052;2023-03-13T03:49:26;8.57;;;5.73;;
8333;SDS011;4204;43.004;23.052;2023-03-13T03:51:54;8.90;;;5.70;;
8333;SDS011;4204;43.004;23.052;2023-03-13T03:54:28;8.23;;;5.43;;
8333;SDS011;4204;43.004;23.052;2023-03-13T03:56:56;7.60;;;5.03;;
8333;SDS011;4204;43.004;23.052;2023-03-13T03:59:24;9.27;;;6.53;;
8333;SDS011;4204;43.004;23.052;2023-03-13T04:01:57;7.70;;;5.10;;
8333;SDS011;4204;43.004;23.052;2023-03-13T04:04:28;6.53;;;4.97;;
8333;SDS011;4204;43.004;23.052;2023-03-13T04:07:03;11.30;;;4.93;;
8333;SDS011;4204;43.004;23.052;2023-03-13T04:09:32;6.77;;;4.37;;
8333;SDS011;4204;43.004;23.052;2023-03-13T04:12:01;7.73;;;5.30;;
8333;SDS011;4204;43.004;23.052;2023-03-13T04:14:33;6.90;;;4.63;;
8333;SDS011;4204;43.004;23.052;2023-03-13T04:17:04;8.13;;;4.60;;
8333;SDS011;4204;43.004;23.052;2023-03-13T04:19:33;8.10;;;4.80;;
8333;SDS011;4204;43.004;23.052;2023-03-13T04:22:01;7.00;;;5.00;;
8333;SDS011;4204;43.004;23.052;2023-03-13T04:24:29;4.97;;;4.10;;
8333;SDS011;4204;43.004;23.052;2023-03-13T04:26:57;6.37;;;4.53;;
8333;SDS011;4204;43.004;23.052;2023-03-13T04:29:27;6.57;;;4.10;;
8333;SDS011;4204;43.004;23.052;2023-03-13T04:32:03;7.40;;;4.30;;
8333;SDS011;4204;43.004;23.052;2023-03-13T04:34:40;9.80;;;5.67;;
8333;SDS011;4204;43.004;23.052;2023-03-13T04:37:34;9.53;;;5.77;;
8333;SDS011;4204;43.004;23.052;2023-03-13T04:40:11;7.87;;;5.50;;
8333;SDS011;4204;43.004;23.052;2023-03-13T04:43:08;9.20;;;5.47;;
8333;SDS011;4204;43.004;23.052;2023-03-13T04:45:45;6.70;;;5.57;;
8333;SDS011;4204;43.004;23.052;2023-03-13T04:48:41;9.07;;;5.60;;
8333;SDS011;4204;43.004;23.052;2023-03-13T04:51:28;10.30;;;5.97;;
8333;SDS011;4204;43.004;23.052;2023-03-13T04:54:14;9.33;;;5.70;;
8333;SDS011;4204;43.004;23.052;2023-03-13T04:57:08;10.80;;;6.07;;
8333;SDS011;4204;43.004;23.052;2023-03-13T04:59:41;9.67;;;5.80;;
8333;SDS011;4204;43.004;23.052;2023-03-13T05:02:44;13.40;;;6.73;;
8333;SDS011;4204;43.004;23.052;2023-03-13T05:05:26;9.90;;;6.60;;
8333;SDS011;4204;43.004;23.052;2023-03-13T05:08:22;9.73;;;6.23;;
8333;SDS011;4204;43.004;23.052;2023-03-13T05:11:04;12.83;;;7.37;;
8333;SDS011;4204;43.004;23.052;2023-03-13T05:13:52;9.70;;;6.27;;
8333;SDS011;4204;43.004;23.052;2023-03-13T05:16:49;9.47;;;5.90;;
8333;SDS011;4204;43.004;23.052;2023-03-13T05:19:46;13.63;;;8.10;;
8333;SDS011;4204;43.004;23.052;2023-03-13T05:22:22;22.43;;;9.30;;
8333;SDS011;4204;43.004;23.052;2023-03-13T05:25:12;20.47;;;10.23;;
8333;SDS011;4204;43.004;23.052;2023-03-13T05:27:52;17.50;;;9.83;;
8333;SDS011;4204;43.004;23.052;2023-03-13T05:30:40;23.33;;;9.40;;
8333;SDS011;4204;43.004;23.052;2023-03-13T05:33:15;18.43;;;9.87;;
8333;SDS011;4204;43.004;23.052;2023-03-13T05:36:04;18.97;;;10.33;;
8333;SDS011;4204;43.004;23.052;2023-03-13T05:38:50;19.23;;;10.70;;
8333;SDS011;4204;43.004;23.052;2023-03-13T05:41:31;25.60;;;11.63;;
8333;SDS011;4204;43.004;23.052;2023-03-13T05:44:13;17.43;;;10.43;;
8333;SDS011;4204;43.004;23.052;2023-03-13T05:47:13;23.23;;;12.97;;
8333;SDS011;4204;43.004;23.052;2023-03-13T05:49:42;18.83;;;10.87;;
8333;SDS011;4204;43.004;23.052;2023-03-13T05:52:27;21.37;;;12.13;;
8333;SDS011;4204;43.004;23.052;2023-03-13T05:55:14;27.00;;;15.00;;
8333;SDS011;4204;43.004;23.052;2023-03-13T05:57:59;28.10;;;14.53;;
8333;SDS011;4204;43.004;23.052;2023-03-13T06:00:44;16.23;;;10.63;;
8333;SDS011;4204;43.004;23.052;2023-03-13T06:03:45;11.53;;;7.60;;
8333;SDS011;4204;43.004;23.052;2023-03-13T06:06:15;15.27;;;8.33;;
8333;SDS011;4204;43.004;23.052;2023-03-13T06:08:46;17.47;;;11.77;;
8333;SDS011;4204;43.004;23.052;2023-03-13T06:11:14;18.57;;;11.00;;
8333;SDS011;4204;43.004;23.052;2023-03-13T06:13:43;16.47;;;9.67;;
8333;SDS011;4204;43.004;23.052;2023-03-13T06:16:37;16.70;;;9.87;;
8333;SDS011;4204;43.004;23.052;2023-03-13T06:19:17;15.47;;;9.57;;
8333;SDS011;4204;43.004;23.052;2023-03-13T06:21:45;10.90;;;7.93;;
8333;SDS011;4204;43.004;23.052;2023-03-13T06:24:13;11.33;;;7.87;;
8333;SDS011;4204;43.004;23.052;2023-03-13T06:26:40;11.90;;;7.60;;
8333;SDS011;4204;43.004;23.052;2023-03-13T06:29:10;11.13;;;7.60;;
8333;SDS011;4204;43.004;23.052;2023-03-13T06:31:38;11.43;;;7.47;;
8333;SDS011;4204;43.004;23.052;2023-03-13T06:34:05;12.57;;;7.63;;
8333;SDS011;4204;43.004;23.052;2023-03-13T06:36:34;11.10;;;8.03;;
8333;SDS011;4204;43.004;23.052;2023-03-13T06:39:02;9.43;;;6.53;;
8333;SDS011;4204;43.004;23.052;2023-03-13T06:41:30;7.73;;;6.23;;
8333;SDS011;4204;43.004;23.052;2023-03-13T06:43:59;8.27;;;5.43;;
8333;SDS011;4204;43.004;23.052;2023-03-13T06:46:28;9.67;;;5.53;;
8333;SDS011;4204;43.004;23.052;2023-03-13T06:48:56;7.90;;;5.73;;
8333;SDS011;4204;43.004;23.052;2023-03-13T06:51:25;9.40;;;5.93;;
8333;SDS011;4204;43.004;23.052;2023-03-13T06:53:53;7.43;;;5.10;;
8333;SDS011;4204;43.004;23.052;2023-03-13T06:56:21;8.17;;;5.90;;
8333;SDS011;4204;43.004;23.052;2023-03-13T06:58:49;6.87;;;5.87;;
8333;SDS011;4204;43.004;23.052;2023-03-13T07:01:17;8.10;;;6.27;;
8333;SDS011;4204;43.004;23.052;2023-03-13T07:03:47;7.83;;;5.73;;
8333;SDS011;4204;43.004;23.052;2023-03-13T07:06:15;7.60;;;6.03;;
8333;SDS011;4204;43.004;23.052;2023-03-13T07:08:43;9.23;;;6.63;;
8333;SDS011;4204;43.004;23.052;2023-03-13T07:11:12;11.13;;;7.57;;
8333;SDS011;4204;43.004;23.052;2023-03-13T07:13:41;8.70;;;6.30;;
8333;SDS011;4204;43.004;23.052;2023-03-13T07:16:09;9.33;;;5.87;;
8333;SDS011;4204;43.004;23.052;2023-03-13T07:18:39;8.67;;;5.73;;
8333;SDS011;4204;43.004;23.052;2023-03-13T07:21:10;9.10;;;6.30;;
8333;SDS011;4204;43.004;23.052;2023-03-13T07:23:39;10.20;;;7.53;;
8333;SDS011;4204;43.004;23.052;2023-03-13T07:26:08;10.10;;;6.53;;
8333;SDS011;4204;43.004;23.052;2023-03-13T07:28:38;10.07;;;6.70;;
8333;SDS011;4204;43.004;23.052;2023-03-13T07:31:07;10.17;;;6.30;;
8333;SDS011;4204;43.004;23.052;2023-03-13T07:33:37;7.67;;;5.80;;
8333;SDS011;4204;43.004;23.052;2023-03-13T07:36:05;8.10;;;6.17;;
8333;SDS011;4204;43.004;23.052;2023-03-13T07:38:35;8.70;;;6.27;;
8333;SDS011;4204;43.004;23.052;2023-03-13T07:41:03;8.70;;;6.47;;
8333;SDS011;4204;43.004;23.052;2023-03-13T07:43:31;8.73;;;6.50;;
8333;SDS011;4204;43.004;23.052;2023-03-13T07:46:00;7.97;;;5.77;;
8333;SDS011;4204;43.004;23.052;2023-03-13T07:48:30;8.43;;;5.73;;
8333;SDS011;4204;43.004;23.052;2023-03-13T07:50:59;10.03;;;6.83;;
8333;SDS011;4204;43.004;23.052;2023-03-13T07:53:27;7.90;;;6.17;;
8333;SDS011;4204;43.004;23.052;2023-03-13T07:55:57;8.57;;;5.67;;
8333;SDS011;4204;43.004;23.052;2023-03-13T07:58:27;8.63;;;6.40;;
8333;SDS011;4204;43.004;23.052;2023-03-13T08:00:56;7.63;;;5.57;;
8333;SDS011;4204;43.004;23.052;2023-03-13T08:03:24;7.40;;;5.27;;
8333;SDS011;4204;43.004;23.052;2023-03-13T08:05:57;7.80;;;5.37;;
8333;SDS011;4204;43.004;23.052;2023-03-13T08:08:25;8.60;;;5.17;;
8333;SDS011;4204;43.004;23.052;2023-03-13T08:10:59;9.90;;;5.30;;
8333;SDS011;4204;43.004;23.052;2023-03-13T08:13:28;5.70;;;4.83;;
8333;SDS011;4204;43.004;23.052;2023-03-13T08:16:03;6.43;;;4.90;;
8333;SDS011;4204;43.004;23.052;2023-03-13T08:18:33;7.20;;;5.40;;
8333;SDS011;4204;43.004;23.052;2023-03-13T08:21:02;6.50;;;5.23;;
8333;SDS011;4204;43.004;23.052;2023-03-13T08:23:30;9.13;;;5.97;;
8333;SDS011;4204;43.004;23.052;2023-03-13T08:26:03;7.97;;;5.80;;
8333;SDS011;4204;43.004;23.052;2023-03-13T08:28:33;7.80;;;5.97;;
8333;SDS011;4204;43.004;23.052;2023-03-13T08:31:08;7.50;;;4.90;;
8333;SDS011;4204;43.004;23.052;2023-03-13T08:33:36;6.53;;;4.90;;
8333;SDS011;4204;43.004;23.052;2023-03-13T08:36:11;5.80;;;4.40;;
8333;SDS011;4204;43.004;23.052;2023-03-13T08:38:42;5.30;;;4.27;;
8333;SDS011;4204;43.004;23.052;2023-03-13T08:41:11;6.00;;;4.80;;
8333;SDS011;4204;43.004;23.052;2023-03-13T08:43:40;6.90;;;4.50;;
8333;SDS011;4204;43.004;23.052;2023-03-13T08:46:07;5.50;;;4.13;;
8333;SDS011;4204;43.004;23.052;2023-03-13T08:48:35;5.03;;;4.17;;
8333;SDS011;4204;43.004;23.052;2023-03-13T08:51:04;6.23;;;4.83;;
8333;SDS011;4204;43.004;23.052;2023-03-13T08:53:34;7.03;;;4.73;;
8333;SDS011;4204;43.004;23.052;2023-03-13T08:56:03;6.07;;;4.57;;
8333;SDS011;4204;43.004;23.052;2023-03-13T08:58:33;6.97;;;4.37;;
8333;SDS011;4204;43.004;23.052;2023-03-13T09:01:01;6.47;;;4.60;;
8333;SDS011;4204;43.004;23.052;2023-03-13T09:03:30;5.40;;;4.80;;
8333;SDS011;4204;43.004;23.052;2023-03-13T09:05:58;7.47;;;4.93;;
8333;SDS011;4204;43.004;23.052;2023-03-13T09:08:26;6.27;;;4.83;;
8333;SDS011;4204;43.004;23.052;2023-03-13T09:10:55;6.13;;;4.60;;
8333;SDS011;4204;43.004;23.052;2023-03-13T09:13:24;5.57;;;4.40;;
8333;SDS011;4204;43.004;23.052;2023-03-13T09:15:54;5.80;;;4.33;;
8333;SDS011;4204;43.004;23.052;2023-03-13T09:18:22;6.87;;;4.60;;
8333;SDS011;4204;43.004;23.052;2023-03-13T09:20:50;7.87;;;5.07;;
8333;SDS011;4204;43.004;23.052;2023-03-13T09:23:18;4.87;;;4.37;;
8333;SDS011;4204;43.004;23.052;2023-03-13T09:25:47;5.23;;;4.60;;
8333;SDS011;4204;43.004;23.052;2023-03-13T09:28:15;7.13;;;4.80;;
8333;SDS011;4204;43.004;23.052;2023-03-13T09:30:43;17.27;;;8.90;;
8333;SDS011;4204;43.004;23.052;2023-03-13T09:33:12;5.97;;;4.60;;
8333;SDS011;4204;43.004;23.052;2023-03-13T09:35:39;8.13;;;5.47;;
8333;SDS011;4204;43.004;23.052;2023-03-13T09:38:07;9.70;;;5.13;;
8333;SDS011;4204;43.004;23.052;2023-03-13T09:40:36;6.87;;;5.03;;
8333;SDS011;4204;43.004;23.052;2023-03-13T09:43:12;7.30;;;5.03;;
8333;SDS011;4204;43.004;23.052;2023-03-13T09:45:49;5.80;;;4.17;;
8333;SDS011;4204;43.004;23.052;2023-03-13T09:48:28;5.60;;;4.27;;
8333;SDS011;4204;43.004;23.052;2023-03-13T09:51:00;7.80;;;4.70;;
8333;SDS011;4204;43.004;23.052;2023-03-13T09:53:37;5.50;;;4.57;;
8333;SDS011;4204;43.004;23.052;2023-03-13T09:56:11;4.67;;;4.00;;
8333;SDS011;4204;43.004;23.052;2023-03-13T09:58:43;6.93;;;5.30;;
8333;SDS011;4204;43.004;23.052;2023-03-13T10:01:19;6.33;;;4.70;;
8333;SDS011;4204;43.004;23.052;2023-03-13T10:03:54;6.23;;;4.30;;
8333;SDS011;4204;43.004;23.052;2023-03-13T10:06:29;4.97;;;3.93;;
8333;SDS011;4204;43.004;23.052;2023-03-13T10:09:01;6.40;;;5.00;;
8333;SDS011;4204;43.004;23.052;2023-03-13T10:11:31;5.83;;;4.97;;
8333;SDS011;4204;43.004;23.052;2023-03-13T10:14:10;7.30;;;5.40;;
8333;SDS011;4204;43.004;23.052;2023-03-13T10:16:43;4.90;;;4.30;;
8333;SDS011;4204;43.004;23.052;2023-03-13T10:19:16;4.70;;;4.23;;
8333;SDS011;4204;43.004;23.052;2023-03-13T10:21:50;5.77;;;4.10;;
8333;SDS011;4204;43.004;23.052;2023-03-13T10:24:24;4.60;;;4.10;;
8333;SDS011;4204;43.004;23.052;2023-03-13T10:26:58;4.73;;;3.67;;
8333;SDS011;4204;43.004;23.052;2023-03-13T10:29:26;5.70;;;4.00;;
8333;SDS011;4204;43.004;23.052;2023-03-13T10:31:56;6.13;;;4.57;;
8333;SDS011;4204;43.004;23.052;2023-03-13T10:34:27;4.43;;;2.90;;
8333;SDS011;4204;43.004;23.052;2023-03-13T10:36:57;3.53;;;3.10;;
8333;SDS011;4204;43.004;23.052;2023-03-13T10:39:27;3.87;;;3.10;;
8333;SDS011;4204;43.004;23.052;2023-03-13T10:41:56;4.37;;;3.60;;
8333;SDS011;4204;43.004;23.052;2023-03-13T10:44:34;3.27;;;2.97;;
8333;SDS011;4204;43.004;23.052;2023-03-13T10:47:02;3.57;;;3.10;;
8333;SDS011;4204;43.004;23.052;2023-03-13T10:49:32;4.03;;;3.30;;
8333;SDS011;4204;43.004;23.052;2023-03-13T10:52:00;3.50;;;3.20;;
8333;SDS011;4204;43.004;23.052;2023-03-13T10:54:32;3.50;;;3.20;;
8333;SDS011;4204;43.004;23.052;2023-03-13T10:57:13;6.20;;;3.67;;
8333;SDS011;4204;43.004;23.052;2023-03-13T10:59:52;3.73;;;3.30;;
8333;SDS011;4204;43.004;23.052;2023-03-13T11:02:22;4.90;;;3.20;;
8333;SDS011;4204;43.004;23.052;2023-03-13T11:04:54;5.33;;;3.17;;
8333;SDS011;4204;43.004;23.052;2023-03-13T11:07:25;4.87;;;4.10;;
8333;SDS011;4204;43.004;23.052;2023-03-13T11:09:58;4.60;;;3.90;;
8333;SDS011;4204;43.004;23.052;2023-03-13T11:12:27;3.60;;;3.20;;
8333;SDS011;4204;43.004;23.052;2023-03-13T11:14:59;5.57;;;4.03;;
8333;SDS011;4204;43.004;23.052;2023-03-13T11:17:29;4.43;;;3.93;;
8333;SDS011;4204;43.004;23.052;2023-03-13T11:20:16;4.57;;;4.00;;
8333;SDS011;4204;43.004;23.052;2023-03-13T11:22:51;5.07;;;4.13;;
8333;SDS011;4204;43.004;23.052;2023-03-13T11:25:23;3.90;;;3.50;;
8333;SDS011;4204;43.004;23.052;2023-03-13T11:28:04;3.93;;;3.47;;
8333;SDS011;4204;43.004;23.052;2023-03-13T11:30:44;4.37;;;3.80;;
8333;SDS011;4204;43.004;23.052;2023-03-13T11:33:24;6.00;;;3.80;;
8333;SDS011;4204;43.004;23.052;2023-03-13T11:36:00;4.57;;;3.53;;
8333;SDS011;4204;43.004;23.052;2023-03-13T11:38:31;3.83;;;3.43;;
8333;SDS011;4204;43.004;23.052;2023-03-13T11:41:05;4.73;;;3.30;;
8333;SDS011;4204;43.004;23.052;2023-03-13T11:43:45;5.23;;;3.60;;
8333;SDS011;4204;43.004;23.052;2023-03-13T11:46:30;3.47;;;3.17;;
8333;SDS011;4204;43.004;23.052;2023-03-13T11:52:14;3.63;;;3.23;;
8333;SDS011;4204;43.004;23.052;2023-03-13T11:54:54;4.00;;;3.37;;
8333;SDS011;4204;43.004;23.052;2023-03-13T11:57:41;3.47;;;3.17;;
8333;SDS011;4204;43.004;23.052;2023-03-13T12:00:17;3.80;;;2.97;;
8333;SDS011;4204;43.004;23.052;2023-03-13T12:02:49;3.33;;;3.00;;
8333;SDS011;4204;43.004;23.052;2023-03-13T12:05:22;3.20;;;2.90;;
8333;SDS011;4204;43.004;23.052;2023-03-13T12:07:55;3.00;;;2.80;;
8333;SDS011;4204;43.004;23.052;2023-03-13T12:10:29;3.87;;;2.60;;
8333;SDS011;4204;43.004;23.052;2023-03-13T12:13:03;3.87;;;2.87;;
8333;SDS011;4204;43.004;23.052;2023-03-13T12:15:39;3.00;;;2.70;;
8333;SDS011;4204;43.004;23.052;2023-03-13T12:18:12;4.50;;;3.60;;
8333;SDS011;4204;43.004;23.052;2023-03-13T12:20:45;5.97;;;4.70;;
8333;SDS011;4204;43.004;23.052;2023-03-13T12:23:20;23.27;;;14.43;;
8333;SDS011;4204;43.004;23.052;2023-03-13T12:25:55;4.80;;;4.30;;
8333;SDS011;4204;43.004;23.052;2023-03-13T12:28:30;5.67;;;3.30;;
8333;SDS011;4204;43.004;23.052;2023-03-13T12:31:06;5.77;;;4.63;;
8333;SDS011;4204;43.004;23.052;2023-03-13T12:33:41;3.60;;;3.13;;
8333;SDS011;4204;43.004;23.052;2023-03-13T12:36:13;4.30;;;2.80;;
8333;SDS011;4204;43.004;23.052;2023-03-13T12:38:48;2.70;;;2.50;;
8333;SDS011;4204;43.004;23.052;2023-03-13T12:41:23;5.87;;;3.30;;
8333;SDS011;4204;43.004;23.052;2023-03-13T12:43:54;3.37;;;3.07;;
8333;SDS011;4204;43.004;23.052;2023-03-13T12:46:33;6.80;;;6.20;;
8333;SDS011;4204;43.004;23.052;2023-03-13T12:49:07;3.83;;;3.43;;
8333;SDS011;4204;43.004;23.052;2023-03-13T12:52:05;3.20;;;2.53;;
8333;SDS011;4204;43.004;23.052;2023-03-13T12:54:47;2.47;;;2.27;;
8333;SDS011;4204;43.004;23.052;2023-03-13T12:57:36;3.30;;;2.90;;
8333;SDS011;4204;43.004;23.052;2023-03-13T13:00:25;4.33;;;3.43;;
8333;SDS011;4204;43.004;23.052;2023-03-13T13:03:08;3.90;;;2.97;;
8333;SDS011;4204;43.004;23.052;2023-03-13T13:06:04;2.60;;;2.40;;
8333;SDS011;4204;43.004;23.052;2023-03-13T13:08:36;4.03;;;3.00;;
8333;SDS011;4204;43.004;23.052;2023-03-13T13:17:30;3.13;;;2.83;;
8333;SDS011;4204;43.004;23.052;2023-03-13T13:20:29;3.87;;;2.93;;
8333;SDS011;4204;43.004;23.052;2023-03-13T13:23:17;4.53;;;2.93;;
8333;SDS011;4204;43.004;23.052;2023-03-13T13:25:51;4.33;;;3.03;;
8333;SDS011;4204;43.004;23.052;2023-03-13T13:28:33;4.60;;;2.70;;
8333;SDS011;4204;43.004;23.052;2023-03-13T13:31:01;3.27;;;2.27;;
8333;SDS011;4204;43.004;23.052;2023-03-13T13:34:28;2.33;;;2.10;;
8333;SDS011;4204;43.004;23.052;2023-03-13T13:37:26;2.70;;;2.50;;
8333;SDS011;4204;43.004;23.052;2023-03-13T13:42:46;2.60;;;2.40;;
8333;SDS011;4204;43.004;23.052;2023-03-13T13:45:25;4.33;;;3.10;;
8333;SDS011;4204;43.004;23.052;2023-03-13T13:53:52;2.40;;;2.20;;
8333;SDS011;4204;43.004;23.052;2023-03-13T13:56:33;2.70;;;2.40;;
8333;SDS011;4204;43.004;23.052;2023-03-13T13:59:06;2.43;;;2.17;;
8333;SDS011;4204;43.004;23.052;2023-03-13T14:02:10;2.90;;;2.50;;
8333;SDS011;4204;43.004;23.052;2023-03-13T14:04:41;3.13;;;2.50;;
8333;SDS011;4204;43.004;23.052;2023-03-13T14:07:14;50.83;;;24.43;;
8333;SDS011;4204;43.004;23.052;2023-03-13T14:09:47;6.10;;;4.70;;
8333;SDS011;4204;43.004;23.052;2023-03-13T14:12:26;6.33;;;4.77;;
8333;SDS011;4204;43.004;23.052;2023-03-13T14:15:05;3.37;;;3.07;;
8333;SDS011;4204;43.004;23.052;2023-03-13T14:17:45;11.77;;;8.67;;
8333;SDS011;4204;43.004;23.052;2023-03-13T14:20:16;2.67;;;2.47;;
8333;SDS011;4204;43.004;23.052;2023-03-13T14:22:57;8.70;;;6.70;;
8333;SDS011;4204;43.004;23.052;2023-03-13T14:25:27;15.07;;;12.97;;
8333;SDS011;4204;43.004;23.052;2023-03-13T14:28:14;5.63;;;5.03;;
8333;SDS011;4204;43.004;23.052;2023-03-13T14:30:44;2.90;;;2.60;;
8333;SDS011;4204;43.004;23.052;2023-03-13T14:33:14;2.40;;;2.13;;
8333;SDS011;4204;43.004;23.052;2023-03-13T14:35:44;2.40;;;2.20;;
8333;SDS011;4204;43.004;23.052;2023-03-13T14:38:18;3.67;;;2.13;;
8333;SDS011;4204;43.004;23.052;2023-03-13T14:40:47;3.50;;;2.53;;
8333;SDS011;4204;43.004;23.052;2023-03-13T14:43:24;10.33;;;8.10;;
8333;SDS011;4204;43.004;23.052;2023-03-13T14:45:57;5.30;;;4.50;;
8333;SDS011;4204;43.004;23.052;2023-03-13T14:48:29;4.07;;;2.50;;
8333;SDS011;4204;43.004;23.052;2023-03-13T14:51:02;3.60;;;2.50;;
8333;SDS011;4204;43.004;23.052;2023-03-13T14:53:36;3.83;;;2.20;;
8333;SDS011;4204;43.004;23.052;2023-03-13T14:56:11;2.00;;;1.80;;
8333;SDS011;4204;43.004;23.052;2023-03-13T14:58:44;2.40;;;2.20;;
8333;SDS011;4204;43.004;23.052;2023-03-13T15:01:13;2.43;;;2.23;;
8333;SDS011;4204;43.004;23.052;2023-03-13T15:03:49;2.17;;;1.93;;
8333;SDS011;4204;43.004;23.052;2023-03-13T15:06:19;2.50;;;2.30;;
8333;SDS011;4204;43.004;23.052;2023-03-13T15:09:06;2.90;;;2.03;;
8333;SDS011;4204;43.004;23.052;2023-03-13T15:11:42;2.70;;;2.10;;
8333;SDS011;4204;43.004;23.052;2023-03-13T15:14:35;2.37;;;2.10;;
8333;SDS011;4204;43.004;23.052;2023-03-13T15:17:13;2.10;;;1.90;;
8333;SDS011;4204;43.004;23.052;2023-03-13T15:19:46;3.37;;;2.70;;
8333;SDS011;4204;43.004;23.052;2023-03-13T15:22:16;3.67;;;3.20;;
8333;SDS011;4204;43.004;23.052;2023-03-13T15:24:48;3.37;;;2.90;;
8333;SDS011;4204;43.004;23.052;2023-03-13T15:27:16;2.13;;;1.80;;
8333;SDS011;4204;43.004;23.052;2023-03-13T15:29:45;6.87;;;3.90;;
8333;SDS011;4204;43.004;23.052;2023-03-13T15:32:15;2.80;;;2.53;;
8333;SDS011;4204;43.004;23.052;2023-03-13T15:34:50;7.53;;;4.03;;
8333;SDS011;4204;43.004;23.052;2023-03-13T15:37:18;4.90;;;4.33;;
8333;SDS011;4204;43.004;23.052;2023-03-13T15:39:47;4.43;;;3.03;;
8333;SDS011;4204;43.004;23.052;2023-03-13T15:42:15;2.67;;;2.13;;
8333;SDS011;4204;43.004;23.052;2023-03-13T15:44:43;3.23;;;2.10;;
8333;SDS011;4204;43.004;23.052;2023-03-13T15:47:10;2.77;;;2.50;;
8333;SDS011;4204;43.004;23.052;2023-03-13T15:49:43;3.90;;;2.40;;
8333;SDS011;4204;43.004;23.052;2023-03-13T15:52:12;3.73;;;2.37;;
8333;SDS011;4204;43.004;23.052;2023-03-13T15:54:44;3.30;;;2.10;;